CheckWX is a tool to help pilots better visualize weather data.  It is not intended as a substitute for an official pre-flight weather briefing.

04:17:50 UTC

KTCM METAR
McChord Field (Joint Base Lewis-McChord) Airport
Tacoma, Washington, USA
Current

1 hour ago

KTCM 270258Z AUTO 07003KT 10SM FEW200 17/14 A2987 RMK AO2 SLP118 60002 T01680143 50000 $
Observed
Jun-27 @ 02:58 UTC
Wind
  • 070° at 3 KTS
Visibility
10 SM
Flight Rules
VFR
Cloud Levels
  • Few at 20,000' AGL
Temperature
17°C / 63°F
Dewpoint
14°C / 57°F
Humidity
83%
Altimeter
29.87" Hg
Pressure
1011.52 hPa
Previous

2 hours ago

KTCM 270158Z AUTO 27006KT 10SM FEW110 FEW200 17/16 A2989 RMK AO2 SLP125 T01670159 $
Observed
Jun-27 @ 01:58 UTC
Wind
  • 270° at 6 KTS
Visibility
10 SM
Flight Rules
VFR
Cloud Levels
  • Few at 11,000' AGL
  • Few at 20,000' AGL
Temperature
17°C / 63°F
Dewpoint
16°C / 61°F
Humidity
94%
Altimeter
29.89" Hg
Pressure
1012.22 hPa
Previous

3 hours ago

KTCM 270058Z AUTO 16004KT 10SM FEW160 16/16 A2987 RMK AO2 RAE28 SLP119 P0002 T01600158 $
Observed
Jun-27 @ 00:58 UTC
Wind
  • 160° at 4 KTS
Visibility
10 SM
Flight Rules
VFR
Cloud Levels
  • Few at 16,000' AGL
Temperature
16°C / 61°F
Dewpoint
16°C / 61°F
Humidity
100%
Altimeter
29.87" Hg
Pressure
1011.52 hPa
Current Rain
0.02"